Terminal Aerodrome Forecast
Issued by NWS Portland, ME

Home | Current Version | Previous Version | Text Only | Print | Product List | Glossary On
Versions: 1 2 3 4 5 6 7 8 9 10 11 12 13 14 15 16 17 18 19 20
000
FTUS41 KGYX 021127
TAFCON
TAF
KCON 021127Z 0212/0312 02005KT P6SM -SHRA BKN015 OVC025
      TEMPO 0212/0213 3SM RA BR SCT008 OVC012
     FM021400 03007KT P6SM -DZ SCT015 BKN025 OVC035
     FM022200 VRB03KT P6SM BKN025 OVC040=

USA.gov is the U.S. government's official web portal to all federal, state and local government web resources and services.